Terminal Aerodrome Forecast
Issued by NWS

Home | Current Version | Previous Version | Text Only | Print | Product List | Glossary On
Versions: 1 2 3 4 5 6 7 8 9 10 11 12 13 14 15 16 17 18 19 20 21 22 23 24 25 26 27 28 29 30 31 32 33 34 35 36 37 38 39 40 41 42
000
FTUS43 KGLD 172053 AAA
TAFMCK
TAF AMD
KMCK 172053Z 1721/1818 11007KT 4SM -FZDZ BR OVC003
     FM180400 09005KT 2SM BR OVC003
      TEMPO 1805/1809 1SM -SHSN BR
     FM181600 07004KT 5SM BR OVC006=

USA.gov is the U.S. government's official web portal to all federal, state and local government web resources and services.